sensor_id;sensor_type;location;lat;lon;timestamp;P1;durP1;ratioP1;P2;durP2;ratioP2
55015;SDS011;40919;43.236;21.590;2023-06-14T00:01:45;12.30;;;7.38;;
55015;SDS011;40919;43.236;21.590;2023-06-14T00:04:11;12.88;;;7.82;;
55015;SDS011;40919;43.236;21.590;2023-06-14T00:06:37;14.02;;;7.10;;
55015;SDS011;40919;43.236;21.590;2023-06-14T00:09:04;10.30;;;6.97;;
55015;SDS011;40919;43.236;21.590;2023-06-14T00:11:33;11.82;;;8.05;;
55015;SDS011;40919;43.236;21.590;2023-06-14T00:13:59;11.63;;;7.50;;
55015;SDS011;40919;43.236;21.590;2023-06-14T00:16:25;13.10;;;7.57;;
55015;SDS011;40919;43.236;21.590;2023-06-14T00:18:51;12.13;;;8.18;;
55015;SDS011;40919;43.236;21.590;2023-06-14T00:21:17;14.20;;;7.50;;
55015;SDS011;40919;43.236;21.590;2023-06-14T00:23:43;14.10;;;8.40;;
55015;SDS011;40919;43.236;21.590;2023-06-14T00:26:08;16.20;;;7.93;;
55015;SDS011;40919;43.236;21.590;2023-06-14T00:28:34;18.30;;;7.57;;
55015;SDS011;40919;43.236;21.590;2023-06-14T00:31:00;13.85;;;8.27;;
55015;SDS011;40919;43.236;21.590;2023-06-14T00:33:26;12.25;;;7.75;;
55015;SDS011;40919;43.236;21.590;2023-06-14T00:35:51;12.73;;;7.75;;
55015;SDS011;40919;43.236;21.590;2023-06-14T00:38:20;14.70;;;7.70;;
55015;SDS011;40919;43.236;21.590;2023-06-14T00:40:46;13.73;;;7.68;;
55015;SDS011;40919;43.236;21.590;2023-06-14T00:43:12;15.43;;;8.20;;
55015;SDS011;40919;43.236;21.590;2023-06-14T00:45:38;11.43;;;7.75;;
55015;SDS011;40919;43.236;21.590;2023-06-14T00:48:04;13.25;;;7.28;;
55015;SDS011;40919;43.236;21.590;2023-06-14T00:50:31;13.07;;;7.18;;
55015;SDS011;40919;43.236;21.590;2023-06-14T00:52:58;14.27;;;8.00;;
55015;SDS011;40919;43.236;21.590;2023-06-14T00:55:26;11.00;;;7.13;;
55015;SDS011;40919;43.236;21.590;2023-06-14T00:57:53;14.57;;;6.88;;
55015;SDS011;40919;43.236;21.590;2023-06-14T01:00:19;12.38;;;6.63;;
55015;SDS011;40919;43.236;21.590;2023-06-14T01:02:45;13.02;;;7.85;;
55015;SDS011;40919;43.236;21.590;2023-06-14T01:05:13;13.38;;;7.68;;
55015;SDS011;40919;43.236;21.590;2023-06-14T01:12:58;12.35;;;7.78;;
55015;SDS011;40919;43.236;21.590;2023-06-14T01:15:32;18.75;;;9.13;;
55015;SDS011;40919;43.236;21.590;2023-06-14T01:17:59;10.27;;;7.43;;
55015;SDS011;40919;43.236;21.590;2023-06-14T01:20:36;13.13;;;7.85;;
55015;SDS011;40919;43.236;21.590;2023-06-14T01:23:02;11.48;;;7.50;;
55015;SDS011;40919;43.236;21.590;2023-06-14T01:25:28;12.00;;;8.32;;
55015;SDS011;40919;43.236;21.590;2023-06-14T01:28:01;11.52;;;7.70;;
55015;SDS011;40919;43.236;21.590;2023-06-14T01:30:35;12.82;;;8.07;;
55015;SDS011;40919;43.236;21.590;2023-06-14T01:33:09;14.38;;;8.02;;
55015;SDS011;40919;43.236;21.590;2023-06-14T01:35:41;11.15;;;7.90;;
55015;SDS011;40919;43.236;21.590;2023-06-14T01:38:12;10.75;;;7.90;;
55015;SDS011;40919;43.236;21.590;2023-06-14T01:40:39;13.60;;;8.20;;
55015;SDS011;40919;43.236;21.590;2023-06-14T01:43:07;11.32;;;7.93;;
55015;SDS011;40919;43.236;21.590;2023-06-14T01:45:33;9.90;;;7.72;;
55015;SDS011;40919;43.236;21.590;2023-06-14T01:48:01;10.45;;;7.75;;
55015;SDS011;40919;43.236;21.590;2023-06-14T01:50:29;11.38;;;8.02;;
55015;SDS011;40919;43.236;21.590;2023-06-14T01:52:55;12.32;;;8.35;;
55015;SDS011;40919;43.236;21.590;2023-06-14T01:55:21;14.18;;;8.52;;
55015;SDS011;40919;43.236;21.590;2023-06-14T01:57:47;12.85;;;9.80;;
55015;SDS011;40919;43.236;21.590;2023-06-14T02:00:14;13.88;;;10.10;;
55015;SDS011;40919;43.236;21.590;2023-06-14T02:02:41;20.63;;;9.55;;
55015;SDS011;40919;43.236;21.590;2023-06-14T02:05:06;14.02;;;9.52;;
55015;SDS011;40919;43.236;21.590;2023-06-14T02:07:34;12.13;;;10.00;;
55015;SDS011;40919;43.236;21.590;2023-06-14T02:09:59;16.73;;;11.00;;
55015;SDS011;40919;43.236;21.590;2023-06-14T02:12:25;17.27;;;10.70;;
55015;SDS011;40919;43.236;21.590;2023-06-14T02:14:51;16.08;;;10.60;;
55015;SDS011;40919;43.236;21.590;2023-06-14T02:17:17;20.17;;;10.80;;
55015;SDS011;40919;43.236;21.590;2023-06-14T02:19:42;12.73;;;10.40;;
55015;SDS011;40919;43.236;21.590;2023-06-14T02:22:08;13.20;;;10.63;;
55015;SDS011;40919;43.236;21.590;2023-06-14T02:24:34;14.25;;;10.23;;
55015;SDS011;40919;43.236;21.590;2023-06-14T02:27:01;14.90;;;10.13;;
55015;SDS011;40919;43.236;21.590;2023-06-14T02:29:27;13.77;;;9.43;;
55015;SDS011;40919;43.236;21.590;2023-06-14T02:31:53;14.77;;;9.75;;
55015;SDS011;40919;43.236;21.590;2023-06-14T02:34:18;14.82;;;10.27;;
55015;SDS011;40919;43.236;21.590;2023-06-14T02:36:45;14.63;;;10.80;;
55015;SDS011;40919;43.236;21.590;2023-06-14T02:39:12;16.67;;;9.45;;
55015;SDS011;40919;43.236;21.590;2023-06-14T02:41:39;13.13;;;9.00;;
55015;SDS011;40919;43.236;21.590;2023-06-14T02:44:05;15.20;;;10.18;;
55015;SDS011;40919;43.236;21.590;2023-06-14T02:46:32;18.35;;;10.32;;
55015;SDS011;40919;43.236;21.590;2023-06-14T02:48:57;15.43;;;10.07;;
55015;SDS011;40919;43.236;21.590;2023-06-14T02:51:23;14.93;;;9.95;;
55015;SDS011;40919;43.236;21.590;2023-06-14T02:53:49;18.65;;;10.63;;
55015;SDS011;40919;43.236;21.590;2023-06-14T02:56:15;12.52;;;10.15;;
55015;SDS011;40919;43.236;21.590;2023-06-14T02:58:42;17.25;;;11.57;;
55015;SDS011;40919;43.236;21.590;2023-06-14T03:01:08;15.38;;;10.90;;
55015;SDS011;40919;43.236;21.590;2023-06-14T03:03:37;16.45;;;10.98;;
55015;SDS011;40919;43.236;21.590;2023-06-14T03:06:03;16.92;;;12.07;;
55015;SDS011;40919;43.236;21.590;2023-06-14T03:08:33;21.02;;;12.80;;
55015;SDS011;40919;43.236;21.590;2023-06-14T03:11:03;16.42;;;12.30;;
55015;SDS011;40919;43.236;21.590;2023-06-14T03:13:36;19.10;;;12.48;;
55015;SDS011;40919;43.236;21.590;2023-06-14T03:16:03;20.38;;;13.82;;
55015;SDS011;40919;43.236;21.590;2023-06-14T03:18:30;19.13;;;13.38;;
55015;SDS011;40919;43.236;21.590;2023-06-14T03:21:01;16.90;;;11.82;;
55015;SDS011;40919;43.236;21.590;2023-06-14T03:23:27;19.58;;;12.32;;
55015;SDS011;40919;43.236;21.590;2023-06-14T03:25:53;19.88;;;12.95;;
55015;SDS011;40919;43.236;21.590;2023-06-14T03:28:19;17.17;;;11.35;;
55015;SDS011;40919;43.236;21.590;2023-06-14T03:30:45;20.27;;;12.60;;
55015;SDS011;40919;43.236;21.590;2023-06-14T03:33:11;20.65;;;13.25;;
55015;SDS011;40919;43.236;21.590;2023-06-14T03:35:36;17.25;;;11.80;;
55015;SDS011;40919;43.236;21.590;2023-06-14T03:38:02;19.45;;;11.20;;
55015;SDS011;40919;43.236;21.590;2023-06-14T03:40:28;15.35;;;11.55;;
55015;SDS011;40919;43.236;21.590;2023-06-14T03:42:54;16.83;;;11.55;;
55015;SDS011;40919;43.236;21.590;2023-06-14T03:45:20;15.80;;;12.13;;
55015;SDS011;40919;43.236;21.590;2023-06-14T03:47:47;16.50;;;12.57;;
55015;SDS011;40919;43.236;21.590;2023-06-14T03:50:13;24.27;;;12.05;;
55015;SDS011;40919;43.236;21.590;2023-06-14T03:52:39;19.85;;;12.23;;
55015;SDS011;40919;43.236;21.590;2023-06-14T03:55:07;14.07;;;10.40;;
55015;SDS011;40919;43.236;21.590;2023-06-14T03:57:33;20.80;;;12.20;;
55015;SDS011;40919;43.236;21.590;2023-06-14T03:59:59;19.02;;;11.63;;
55015;SDS011;40919;43.236;21.590;2023-06-14T04:02:25;23.58;;;12.63;;
55015;SDS011;40919;43.236;21.590;2023-06-14T04:04:54;22.17;;;12.80;;
55015;SDS011;40919;43.236;21.590;2023-06-14T04:07:20;19.77;;;12.23;;
55015;SDS011;40919;43.236;21.590;2023-06-14T04:09:46;20.08;;;12.07;;
55015;SDS011;40919;43.236;21.590;2023-06-14T04:12:11;20.05;;;12.48;;
55015;SDS011;40919;43.236;21.590;2023-06-14T04:14:38;19.80;;;11.68;;
55015;SDS011;40919;43.236;21.590;2023-06-14T04:17:04;14.65;;;11.27;;
55015;SDS011;40919;43.236;21.590;2023-06-14T04:19:30;20.13;;;13.00;;
55015;SDS011;40919;43.236;21.590;2023-06-14T04:21:57;18.30;;;13.40;;
55015;SDS011;40919;43.236;21.590;2023-06-14T04:24:27;22.35;;;13.45;;
55015;SDS011;40919;43.236;21.590;2023-06-14T04:26:59;17.73;;;11.70;;
55015;SDS011;40919;43.236;21.590;2023-06-14T04:29:26;21.25;;;12.18;;
55015;SDS011;40919;43.236;21.590;2023-06-14T04:31:54;23.27;;;12.95;;
55015;SDS011;40919;43.236;21.590;2023-06-14T04:34:25;26.00;;;12.85;;
55015;SDS011;40919;43.236;21.590;2023-06-14T04:36:54;20.60;;;11.30;;
55015;SDS011;40919;43.236;21.590;2023-06-14T04:39:24;17.88;;;11.75;;
55015;SDS011;40919;43.236;21.590;2023-06-14T04:41:51;25.52;;;11.88;;
55015;SDS011;40919;43.236;21.590;2023-06-14T04:44:18;21.20;;;12.48;;
55015;SDS011;40919;43.236;21.590;2023-06-14T04:46:47;17.75;;;11.93;;
55015;SDS011;40919;43.236;21.590;2023-06-14T04:49:17;26.08;;;16.95;;
55015;SDS011;40919;43.236;21.590;2023-06-14T04:51:43;20.63;;;13.45;;
55015;SDS011;40919;43.236;21.590;2023-06-14T04:54:10;21.40;;;12.43;;
55015;SDS011;40919;43.236;21.590;2023-06-14T04:56:42;20.15;;;12.88;;
55015;SDS011;40919;43.236;21.590;2023-06-14T04:59:08;20.40;;;12.27;;
55015;SDS011;40919;43.236;21.590;2023-06-14T05:01:36;17.83;;;11.90;;
55015;SDS011;40919;43.236;21.590;2023-06-14T05:04:02;20.10;;;12.88;;
55015;SDS011;40919;43.236;21.590;2023-06-14T05:06:29;19.85;;;12.40;;
55015;SDS011;40919;43.236;21.590;2023-06-14T05:08:56;18.00;;;12.75;;
55015;SDS011;40919;43.236;21.590;2023-06-14T05:11:21;21.52;;;11.82;;
55015;SDS011;40919;43.236;21.590;2023-06-14T05:13:51;14.23;;;11.73;;
55015;SDS011;40919;43.236;21.590;2023-06-14T05:16:17;19.25;;;13.27;;
55015;SDS011;40919;43.236;21.590;2023-06-14T05:18:44;21.95;;;14.15;;
55015;SDS011;40919;43.236;21.590;2023-06-14T05:21:12;18.83;;;14.07;;
55015;SDS011;40919;43.236;21.590;2023-06-14T05:23:38;21.42;;;13.88;;
55015;SDS011;40919;43.236;21.590;2023-06-14T05:26:04;14.80;;;12.07;;
55015;SDS011;40919;43.236;21.590;2023-06-14T05:28:31;25.35;;;13.82;;
55015;SDS011;40919;43.236;21.590;2023-06-14T05:30:57;15.75;;;12.52;;
55015;SDS011;40919;43.236;21.590;2023-06-14T05:33:23;16.70;;;13.75;;
55015;SDS011;40919;43.236;21.590;2023-06-14T05:35:49;18.13;;;14.43;;
55015;SDS011;40919;43.236;21.590;2023-06-14T05:38:15;23.42;;;15.25;;
55015;SDS011;40919;43.236;21.590;2023-06-14T05:40:40;20.90;;;14.57;;
55015;SDS011;40919;43.236;21.590;2023-06-14T05:43:06;19.77;;;15.13;;
55015;SDS011;40919;43.236;21.590;2023-06-14T05:45:32;17.25;;;14.05;;
55015;SDS011;40919;43.236;21.590;2023-06-14T05:47:58;21.92;;;15.18;;
55015;SDS011;40919;43.236;21.590;2023-06-14T05:50:24;18.00;;;14.18;;
55015;SDS011;40919;43.236;21.590;2023-06-14T05:52:50;19.67;;;14.63;;
55015;SDS011;40919;43.236;21.590;2023-06-14T05:55:16;15.77;;;13.27;;
55015;SDS011;40919;43.236;21.590;2023-06-14T05:57:42;19.10;;;15.10;;
55015;SDS011;40919;43.236;21.590;2023-06-14T06:00:08;20.88;;;14.85;;
55015;SDS011;40919;43.236;21.590;2023-06-14T06:02:36;24.73;;;13.95;;
55015;SDS011;40919;43.236;21.590;2023-06-14T06:05:02;23.27;;;14.07;;
55015;SDS011;40919;43.236;21.590;2023-06-14T06:07:28;19.63;;;13.20;;
55015;SDS011;40919;43.236;21.590;2023-06-14T06:09:53;16.80;;;11.73;;
55015;SDS011;40919;43.236;21.590;2023-06-14T06:12:19;18.13;;;12.65;;
55015;SDS011;40919;43.236;21.590;2023-06-14T06:14:45;14.38;;;11.70;;
55015;SDS011;40919;43.236;21.590;2023-06-14T06:17:11;14.65;;;10.27;;
55015;SDS011;40919;43.236;21.590;2023-06-14T06:19:36;12.20;;;9.63;;
55015;SDS011;40919;43.236;21.590;2023-06-14T06:22:02;14.77;;;10.73;;
55015;SDS011;40919;43.236;21.590;2023-06-14T06:24:31;12.02;;;9.90;;
55015;SDS011;40919;43.236;21.590;2023-06-14T06:26:57;12.88;;;7.47;;
55015;SDS011;40919;43.236;21.590;2023-06-14T06:29:23;8.45;;;7.53;;
55015;SDS011;40919;43.236;21.590;2023-06-14T06:31:48;9.23;;;7.72;;
55015;SDS011;40919;43.236;21.590;2023-06-14T06:34:14;12.23;;;7.90;;
55015;SDS011;40919;43.236;21.590;2023-06-14T06:36:40;13.30;;;10.32;;
55015;SDS011;40919;43.236;21.590;2023-06-14T06:39:07;10.05;;;7.25;;
55015;SDS011;40919;43.236;21.590;2023-06-14T06:41:36;9.50;;;7.05;;
55015;SDS011;40919;43.236;21.590;2023-06-14T06:44:08;7.05;;;6.07;;
55015;SDS011;40919;43.236;21.590;2023-06-14T06:46:36;6.95;;;5.88;;
55015;SDS011;40919;43.236;21.590;2023-06-14T06:49:09;8.32;;;5.88;;
55015;SDS011;40919;43.236;21.590;2023-06-14T06:51:37;6.32;;;5.32;;
55015;SDS011;40919;43.236;21.590;2023-06-14T06:54:07;8.18;;;5.78;;
55015;SDS011;40919;43.236;21.590;2023-06-14T06:56:33;11.07;;;6.38;;
55015;SDS011;40919;43.236;21.590;2023-06-14T06:58:59;7.35;;;5.47;;
55015;SDS011;40919;43.236;21.590;2023-06-14T07:01:25;7.15;;;4.80;;
55015;SDS011;40919;43.236;21.590;2023-06-14T07:03:51;7.30;;;5.03;;
55015;SDS011;40919;43.236;21.590;2023-06-14T07:06:17;6.28;;;5.22;;
55015;SDS011;40919;43.236;21.590;2023-06-14T07:08:44;6.53;;;4.72;;
55015;SDS011;40919;43.236;21.590;2023-06-14T07:11:10;5.75;;;4.10;;
55015;SDS011;40919;43.236;21.590;2023-06-14T07:13:36;6.88;;;3.88;;
55015;SDS011;40919;43.236;21.590;2023-06-14T07:16:03;5.28;;;3.70;;
55015;SDS011;40919;43.236;21.590;2023-06-14T07:18:29;7.53;;;5.68;;
55015;SDS011;40919;43.236;21.590;2023-06-14T07:20:56;6.18;;;4.30;;
55015;SDS011;40919;43.236;21.590;2023-06-14T07:23:22;5.45;;;4.10;;
55015;SDS011;40919;43.236;21.590;2023-06-14T07:25:48;6.85;;;4.82;;
55015;SDS011;40919;43.236;21.590;2023-06-14T07:28:14;12.45;;;4.82;;
55015;SDS011;40919;43.236;21.590;2023-06-14T07:30:41;8.32;;;4.72;;
55015;SDS011;40919;43.236;21.590;2023-06-14T07:33:07;7.35;;;4.38;;
55015;SDS011;40919;43.236;21.590;2023-06-14T07:35:33;5.22;;;3.85;;
55015;SDS011;40919;43.236;21.590;2023-06-14T07:37:59;5.28;;;3.88;;
55015;SDS011;40919;43.236;21.590;2023-06-14T07:40:25;11.77;;;4.65;;
55015;SDS011;40919;43.236;21.590;2023-06-14T07:42:51;6.60;;;4.50;;
55015;SDS011;40919;43.236;21.590;2023-06-14T07:45:19;5.45;;;4.10;;
55015;SDS011;40919;43.236;21.590;2023-06-14T07:47:44;6.72;;;4.28;;
55015;SDS011;40919;43.236;21.590;2023-06-14T07:50:10;7.35;;;4.45;;
55015;SDS011;40919;43.236;21.590;2023-06-14T07:52:37;7.10;;;5.28;;
55015;SDS011;40919;43.236;21.590;2023-06-14T07:55:03;7.82;;;5.15;;
55015;SDS011;40919;43.236;21.590;2023-06-14T07:57:30;7.60;;;5.35;;
55015;SDS011;40919;43.236;21.590;2023-06-14T07:59:56;8.80;;;6.53;;
55015;SDS011;40919;43.236;21.590;2023-06-14T08:02:22;7.13;;;4.80;;
55015;SDS011;40919;43.236;21.590;2023-06-14T08:04:47;9.52;;;6.18;;
55015;SDS011;40919;43.236;21.590;2023-06-14T08:07:13;6.80;;;5.13;;
55015;SDS011;40919;43.236;21.590;2023-06-14T08:09:40;9.75;;;4.72;;
55015;SDS011;40919;43.236;21.590;2023-06-14T08:12:06;6.13;;;3.80;;
55015;SDS011;40919;43.236;21.590;2023-06-14T08:14:34;6.20;;;4.05;;
55015;SDS011;40919;43.236;21.590;2023-06-14T08:17:00;5.18;;;4.20;;
55015;SDS011;40919;43.236;21.590;2023-06-14T08:19:26;5.28;;;3.92;;
55015;SDS011;40919;43.236;21.590;2023-06-14T08:21:52;6.70;;;4.25;;
55015;SDS011;40919;43.236;21.590;2023-06-14T08:24:21;6.75;;;4.22;;
55015;SDS011;40919;43.236;21.590;2023-06-14T08:26:49;6.72;;;5.30;;
55015;SDS011;40919;43.236;21.590;2023-06-14T08:29:15;7.15;;;4.28;;
55015;SDS011;40919;43.236;21.590;2023-06-14T08:31:41;6.43;;;4.00;;
55015;SDS011;40919;43.236;21.590;2023-06-14T08:34:07;5.25;;;3.67;;
55015;SDS011;40919;43.236;21.590;2023-06-14T08:36:34;6.93;;;4.63;;
55015;SDS011;40919;43.236;21.590;2023-06-14T08:39:01;5.18;;;3.70;;
55015;SDS011;40919;43.236;21.590;2023-06-14T08:41:27;5.90;;;4.35;;
55015;SDS011;40919;43.236;21.590;2023-06-14T08:43:54;6.32;;;4.43;;
55015;SDS011;40919;43.236;21.590;2023-06-14T08:46:20;7.88;;;4.10;;
55015;SDS011;40919;43.236;21.590;2023-06-14T08:48:51;5.00;;;3.78;;
55015;SDS011;40919;43.236;21.590;2023-06-14T08:51:22;9.27;;;4.43;;
55015;SDS011;40919;43.236;21.590;2023-06-14T08:53:55;6.45;;;4.93;;
55015;SDS011;40919;43.236;21.590;2023-06-14T08:56:27;7.20;;;4.90;;
55015;SDS011;40919;43.236;21.590;2023-06-14T08:58:54;6.97;;;4.72;;
55015;SDS011;40919;43.236;21.590;2023-06-14T09:01:21;5.20;;;4.18;;
55015;SDS011;40919;43.236;21.590;2023-06-14T09:03:49;5.35;;;4.28;;
55015;SDS011;40919;43.236;21.590;2023-06-14T09:06:16;6.40;;;5.10;;
55015;SDS011;40919;43.236;21.590;2023-06-14T09:08:43;7.93;;;5.22;;
55015;SDS011;40919;43.236;21.590;2023-06-14T09:11:14;8.27;;;5.35;;
55015;SDS011;40919;43.236;21.590;2023-06-14T09:13:43;7.07;;;5.65;;
55015;SDS011;40919;43.236;21.590;2023-06-14T09:16:10;8.30;;;3.80;;
55015;SDS011;40919;43.236;21.590;2023-06-14T09:18:36;7.13;;;4.32;;
55015;SDS011;40919;43.236;21.590;2023-06-14T09:21:03;6.25;;;4.03;;
55015;SDS011;40919;43.236;21.590;2023-06-14T09:23:36;5.95;;;4.03;;
55015;SDS011;40919;43.236;21.590;2023-06-14T09:26:13;6.95;;;4.00;;
55015;SDS011;40919;43.236;21.590;2023-06-14T09:28:43;6.28;;;3.90;;
55015;SDS011;40919;43.236;21.590;2023-06-14T09:31:10;10.32;;;6.30;;
55015;SDS011;40919;43.236;21.590;2023-06-14T09:33:37;8.80;;;5.07;;
55015;SDS011;40919;43.236;21.590;2023-06-14T09:36:03;6.45;;;5.35;;
55015;SDS011;40919;43.236;21.590;2023-06-14T09:38:34;7.70;;;5.07;;
55015;SDS011;40919;43.236;21.590;2023-06-14T09:41:00;10.30;;;5.38;;
55015;SDS011;40919;43.236;21.590;2023-06-14T09:43:29;10.02;;;7.47;;
55015;SDS011;40919;43.236;21.590;2023-06-14T09:45:59;4.75;;;3.80;;
55015;SDS011;40919;43.236;21.590;2023-06-14T09:48:26;8.57;;;5.95;;
55015;SDS011;40919;43.236;21.590;2023-06-14T09:50:52;14.23;;;5.43;;
55015;SDS011;40919;43.236;21.590;2023-06-14T09:53:23;10.65;;;7.72;;
55015;SDS011;40919;43.236;21.590;2023-06-14T09:55:50;7.45;;;5.75;;
55015;SDS011;40919;43.236;21.590;2023-06-14T09:58:20;11.82;;;8.35;;
55015;SDS011;40919;43.236;21.590;2023-06-14T10:00:48;10.00;;;8.88;;
55015;SDS011;40919;43.236;21.590;2023-06-14T10:03:21;10.07;;;8.88;;
55015;SDS011;40919;43.236;21.590;2023-06-14T10:05:50;9.63;;;7.13;;
55015;SDS011;40919;43.236;21.590;2023-06-14T10:08:25;16.88;;;12.90;;
55015;SDS011;40919;43.236;21.590;2023-06-14T10:10:55;6.88;;;5.07;;
55015;SDS011;40919;43.236;21.590;2023-06-14T10:13:22;15.98;;;13.63;;
55015;SDS011;40919;43.236;21.590;2023-06-14T10:18:48;12.73;;;4.68;;
55015;SDS011;40919;43.236;21.590;2023-06-14T10:24:06;7.93;;;5.07;;
55015;SDS011;40919;43.236;21.590;2023-06-14T10:26:39;8.40;;;5.05;;
55015;SDS011;40919;43.236;21.590;2023-06-14T10:29:22;14.13;;;12.15;;
55015;SDS011;40919;43.236;21.590;2023-06-14T10:31:49;12.43;;;8.63;;
55015;SDS011;40919;43.236;21.590;2023-06-14T10:34:25;31.95;;;22.98;;
55015;SDS011;40919;43.236;21.590;2023-06-14T10:37:07;16.48;;;11.98;;
55015;SDS011;40919;43.236;21.590;2023-06-14T10:42:06;6.70;;;5.10;;
55015;SDS011;40919;43.236;21.590;2023-06-14T10:44:33;5.18;;;4.40;;
55015;SDS011;40919;43.236;21.590;2023-06-14T10:47:00;5.68;;;4.00;;
55015;SDS011;40919;43.236;21.590;2023-06-14T10:49:45;5.53;;;3.97;;
55015;SDS011;40919;43.236;21.590;2023-06-14T10:52:14;5.43;;;3.70;;
55015;SDS011;40919;43.236;21.590;2023-06-14T10:57:30;7.78;;;4.80;;
55015;SDS011;40919;43.236;21.590;2023-06-14T11:00:00;6.10;;;4.72;;
55015;SDS011;40919;43.236;21.590;2023-06-14T11:02:45;8.13;;;5.95;;
55015;SDS011;40919;43.236;21.590;2023-06-14T11:05:30;7.55;;;4.88;;
55015;SDS011;40919;43.236;21.590;2023-06-14T11:10:51;4.57;;;3.53;;
55015;SDS011;40919;43.236;21.590;2023-06-14T11:13:24;7.97;;;6.50;;
55015;SDS011;40919;43.236;21.590;2023-06-14T11:15:51;7.65;;;4.63;;
55015;SDS011;40919;43.236;21.590;2023-06-14T11:18:22;11.60;;;8.32;;
55015;SDS011;40919;43.236;21.590;2023-06-14T11:20:52;10.10;;;6.57;;
55015;SDS011;40919;43.236;21.590;2023-06-14T11:23:18;9.80;;;5.47;;
55015;SDS011;40919;43.236;21.590;2023-06-14T11:25:52;8.70;;;5.63;;
55015;SDS011;40919;43.236;21.590;2023-06-14T11:30:48;11.88;;;7.28;;
55015;SDS011;40919;43.236;21.590;2023-06-14T11:33:24;8.05;;;6.28;;
55015;SDS011;40919;43.236;21.590;2023-06-14T11:35:50;8.43;;;5.53;;
55015;SDS011;40919;43.236;21.590;2023-06-14T11:38:17;8.27;;;5.20;;
55015;SDS011;40919;43.236;21.590;2023-06-14T11:40:43;9.57;;;5.13;;
55015;SDS011;40919;43.236;21.590;2023-06-14T11:43:09;7.30;;;5.22;;
55015;SDS011;40919;43.236;21.590;2023-06-14T11:45:35;5.90;;;4.25;;
55015;SDS011;40919;43.236;21.590;2023-06-14T11:48:00;8.20;;;4.82;;
55015;SDS011;40919;43.236;21.590;2023-06-14T11:50:27;5.82;;;4.57;;
55015;SDS011;40919;43.236;21.590;2023-06-14T11:52:56;5.68;;;4.57;;
55015;SDS011;40919;43.236;21.590;2023-06-14T11:55:25;4.18;;;3.15;;
55015;SDS011;40919;43.236;21.590;2023-06-14T11:57:52;7.57;;;3.63;;
55015;SDS011;40919;43.236;21.590;2023-06-14T12:00:22;6.70;;;4.35;;
55015;SDS011;40919;43.236;21.590;2023-06-14T12:02:53;7.25;;;5.90;;
55015;SDS011;40919;43.236;21.590;2023-06-14T12:05:21;5.32;;;3.78;;
55015;SDS011;40919;43.236;21.590;2023-06-14T12:07:47;7.47;;;4.35;;
55015;SDS011;40919;43.236;21.590;2023-06-14T12:10:13;7.00;;;4.72;;
55015;SDS011;40919;43.236;21.590;2023-06-14T12:12:40;5.05;;;3.75;;
55015;SDS011;40919;43.236;21.590;2023-06-14T12:15:07;7.47;;;3.80;;
55015;SDS011;40919;43.236;21.590;2023-06-14T12:17:37;9.00;;;5.38;;
55015;SDS011;40919;43.236;21.590;2023-06-14T12:20:13;5.40;;;4.20;;
55015;SDS011;40919;43.236;21.590;2023-06-14T12:22:50;8.40;;;6.70;;
55015;SDS011;40919;43.236;21.590;2023-06-14T12:25:27;7.50;;;6.30;;
55015;SDS011;40919;43.236;21.590;2023-06-14T12:27:58;6.15;;;4.80;;
55015;SDS011;40919;43.236;21.590;2023-06-14T12:30:34;5.38;;;3.90;;
55015;SDS011;40919;43.236;21.590;2023-06-14T12:33:01;5.05;;;4.00;;
55015;SDS011;40919;43.236;21.590;2023-06-14T12:35:28;7.32;;;6.00;;
55015;SDS011;40919;43.236;21.590;2023-06-14T12:37:54;6.88;;;5.72;;
55015;SDS011;40919;43.236;21.590;2023-06-14T12:40:20;5.82;;;3.78;;
55015;SDS011;40919;43.236;21.590;2023-06-14T12:42:46;5.57;;;3.92;;
55015;SDS011;40919;43.236;21.590;2023-06-14T12:45:14;5.80;;;4.22;;
55015;SDS011;40919;43.236;21.590;2023-06-14T12:47:40;6.20;;;4.05;;
55015;SDS011;40919;43.236;21.590;2023-06-14T12:50:07;8.57;;;4.97;;
55015;SDS011;40919;43.236;21.590;2023-06-14T12:52:33;11.68;;;4.75;;
55015;SDS011;40919;43.236;21.590;2023-06-14T12:55:04;9.73;;;6.10;;
55015;SDS011;40919;43.236;21.590;2023-06-14T12:57:31;9.30;;;5.28;;
55015;SDS011;40919;43.236;21.590;2023-06-14T12:59:59;7.80;;;5.00;;
55015;SDS011;40919;43.236;21.590;2023-06-14T13:02:25;9.93;;;4.88;;
55015;SDS011;40919;43.236;21.590;2023-06-14T13:04:51;6.30;;;4.90;;
55015;SDS011;40919;43.236;21.590;2023-06-14T13:07:17;5.28;;;4.22;;
55015;SDS011;40919;43.236;21.590;2023-06-14T13:09:43;5.35;;;4.00;;
55015;SDS011;40919;43.236;21.590;2023-06-14T13:12:12;5.68;;;3.88;;
55015;SDS011;40919;43.236;21.590;2023-06-14T13:14:38;6.28;;;4.30;;
55015;SDS011;40919;43.236;21.590;2023-06-14T13:17:08;7.65;;;4.38;;
55015;SDS011;40919;43.236;21.590;2023-06-14T13:19:35;7.57;;;4.20;;
55015;SDS011;40919;43.236;21.590;2023-06-14T13:22:01;5.63;;;4.30;;
55015;SDS011;40919;43.236;21.590;2023-06-14T13:24:27;7.55;;;4.07;;
55015;SDS011;40919;43.236;21.590;2023-06-14T13:26:54;7.32;;;3.83;;
55015;SDS011;40919;43.236;21.590;2023-06-14T13:29:20;6.78;;;4.10;;
55015;SDS011;40919;43.236;21.590;2023-06-14T13:31:46;6.68;;;4.85;;
55015;SDS011;40919;43.236;21.590;2023-06-14T13:34:12;7.20;;;4.57;;
55015;SDS011;40919;43.236;21.590;2023-06-14T13:36:38;8.77;;;5.07;;
55015;SDS011;40919;43.236;21.590;2023-06-14T13:39:04;10.07;;;5.10;;
55015;SDS011;40919;43.236;21.590;2023-06-14T13:41:31;10.50;;;7.32;;
55015;SDS011;40919;43.236;21.590;2023-06-14T13:43:59;7.22;;;6.32;;
55015;SDS011;40919;43.236;21.590;2023-06-14T13:46:25;7.47;;;5.82;;
55015;SDS011;40919;43.236;21.590;2023-06-14T13:48:50;8.20;;;5.15;;
55015;SDS011;40919;43.236;21.590;2023-06-14T13:51:17;7.63;;;5.07;;
55015;SDS011;40919;43.236;21.590;2023-06-14T13:53:50;8.02;;;5.68;;
55015;SDS011;40919;43.236;21.590;2023-06-14T13:56:18;9.18;;;5.47;;
55015;SDS011;40919;43.236;21.590;2023-06-14T13:58:44;7.28;;;5.35;;
55015;SDS011;40919;43.236;21.590;2023-06-14T14:01:10;9.82;;;5.57;;
55015;SDS011;40919;43.236;21.590;2023-06-14T14:03:36;6.78;;;5.28;;
55015;SDS011;40919;43.236;21.590;2023-06-14T14:06:03;6.38;;;5.22;;
55015;SDS011;40919;43.236;21.590;2023-06-14T14:08:29;9.45;;;5.85;;
55015;SDS011;40919;43.236;21.590;2023-06-14T14:10:55;7.55;;;5.32;;
55015;SDS011;40919;43.236;21.590;2023-06-14T14:13:21;6.55;;;5.18;;
55015;SDS011;40919;43.236;21.590;2023-06-14T14:15:47;7.88;;;5.93;;
55015;SDS011;40919;43.236;21.590;2023-06-14T14:18:14;8.75;;;6.05;;
55015;SDS011;40919;43.236;21.590;2023-06-14T14:20:40;9.65;;;5.97;;
55015;SDS011;40919;43.236;21.590;2023-06-14T14:23:06;7.40;;;5.50;;
55015;SDS011;40919;43.236;21.590;2023-06-14T14:25:32;11.02;;;6.25;;
55015;SDS011;40919;43.236;21.590;2023-06-14T14:27:57;10.45;;;6.32;;
55015;SDS011;40919;43.236;21.590;2023-06-14T14:30:23;9.68;;;6.38;;
55015;SDS011;40919;43.236;21.590;2023-06-14T14:32:50;9.63;;;6.45;;
55015;SDS011;40919;43.236;21.590;2023-06-14T14:35:16;8.48;;;4.97;;
55015;SDS011;40919;43.236;21.590;2023-06-14T14:37:42;7.80;;;5.95;;
55015;SDS011;40919;43.236;21.590;2023-06-14T14:40:08;8.63;;;5.40;;
55015;SDS011;40919;43.236;21.590;2023-06-14T14:42:35;5.90;;;4.68;;
55015;SDS011;40919;43.236;21.590;2023-06-14T14:45:02;7.63;;;5.25;;
55015;SDS011;40919;43.236;21.590;2023-06-14T14:47:28;8.38;;;6.10;;